Time;durP1;ratioP1;P1;durP2;ratioP2;P2;SDS_P1;SDS_P2;PMS_P1;PMS_P2;Temp;Humidity;BMP_temperature;BMP_pressure;BME280_temperature;BME280_humidity;BME280_pressure;Samples;Min_cycle;Max_cycle;Signal;HPM_P1;HPM_P2
2022/06/24 00:01:42;;;;;;;8.47;3.20;;;20.60;99.90;;;;;;5098132;28;20180;-46
2022/06/24 00:04:08;;;;;;;8.93;3.37;;;20.60;99.90;;;;;;5117175;28;20174;-47
2022/06/24 00:06:45;;;;;;;4.70;3.30;;;20.60;99.90;;;;;;5116571;28;20220;-44
2022/06/24 00:09:12;;;;;;;7.57;3.87;;;20.50;99.90;;;;;;5115505;28;20197;-45
2022/06/24 00:11:38;;;;;;;8.63;3.47;;;20.50;99.90;;;;;;5116265;28;20175;-46
2022/06/24 00:14:05;;;;;;;10.03;3.30;;;20.50;99.90;;;;;;5116181;28;20185;-45
2022/06/24 00:16:51;;;;;;;7.50;3.33;;;20.50;99.90;;;;;;5115949;28;20303;-46
2022/06/24 00:19:16;;;;;;;5.93;3.23;;;20.50;99.90;;;;;;5115683;28;20685;-45
2022/06/24 00:21:42;;;;;;;6.97;3.60;;;20.40;99.90;;;;;;5116004;28;20189;-44
2022/06/24 00:24:21;;;;;;;7.80;3.00;;;20.40;99.90;;;;;;5097422;28;20224;-47
2022/06/24 00:26:47;;;;;;;6.87;3.00;;;20.40;99.90;;;;;;5116008;28;20197;-45
2022/06/24 00:29:19;;;;;;;9.73;3.20;;;20.40;99.90;;;;;;5097309;28;20190;-45
2022/06/24 00:32:06;;;;;;;6.97;3.00;;;20.30;99.90;;;;;;5115462;28;20652;-46
2022/06/24 00:34:36;;;;;;;4.50;2.60;;;20.30;99.90;;;;;;5096881;28;20182;-47
2022/06/24 00:37:21;;;;;;;6.27;2.80;;;20.30;99.90;;;;;;5115848;28;20162;-45
2022/06/24 00:39:46;;;;;;;7.90;2.70;;;20.30;99.90;;;;;;5115897;28;20212;-47
2022/06/24 00:42:12;;;;;;;6.83;2.80;;;20.30;99.90;;;;;;5115734;28;20178;-46
2022/06/24 00:45:10;;;;;;;6.87;2.90;;;20.30;99.90;;;;;;5115861;28;20276;-47
2022/06/24 00:47:37;;;;;;;10.13;2.40;;;20.30;99.90;;;;;;5115705;28;20586;-44
2022/06/24 00:50:15;;;;;;;8.53;2.70;;;20.30;99.90;;;;;;5115422;28;20186;-44
2022/06/24 00:52:41;;;;;;;9.47;2.70;;;20.30;99.90;;;;;;5115629;28;20174;-46
2022/06/24 00:55:07;;;;;;;6.70;2.63;;;20.20;99.90;;;;;;5115441;28;20178;-45
2022/06/24 00:57:36;;;;;;;4.80;2.10;;;20.20;99.90;;;;;;5114920;28;20204;-45
2022/06/24 01:00:06;;;;;;;4.77;1.90;;;20.20;99.90;;;;;;5096638;28;20201;-46
2022/06/24 01:02:32;;;;;;;3.47;1.80;;;20.20;99.90;;;;;;5115042;28;20201;-45
2022/06/24 01:05:08;;;;;;;4.17;2.00;;;20.10;99.90;;;;;;5115165;28;20602;-45
2022/06/24 01:07:38;;;;;;;5.13;1.93;;;20.10;99.90;;;;;;5114805;28;20231;-47
2022/06/24 01:10:06;;;;;;;4.30;2.33;;;20.10;99.90;;;;;;5114815;28;20201;-44
2022/06/24 01:12:33;;;;;;;2.60;1.77;;;20.10;99.90;;;;;;5096561;28;20174;-47
2022/06/24 01:14:58;;;;;;;9.97;1.90;;;20.00;99.90;;;;;;5115268;28;20170;-44
2022/06/24 01:17:24;;;;;;;3.97;1.87;;;20.00;99.90;;;;;;5114989;28;20182;-43
2022/06/24 01:19:50;;;;;;;6.67;2.10;;;20.00;99.90;;;;;;5114944;28;20604;-46
2022/06/24 01:22:21;;;;;;;6.47;2.00;;;19.90;99.90;;;;;;5114719;28;20185;-46
2022/06/24 01:24:47;;;;;;;4.13;2.07;;;20.00;99.90;;;;;;5096289;28;20182;-45
2022/06/24 01:27:13;;;;;;;6.63;1.77;;;20.00;99.90;;;;;;5114086;28;20174;-45
2022/06/24 01:29:39;;;;;;;9.83;2.77;;;19.90;99.90;;;;;;5114798;28;20247;-44
2022/06/24 01:32:05;;;;;;;4.57;2.20;;;19.90;99.90;;;;;;5114834;28;20528;-45
2022/06/24 01:34:31;;;;;;;3.47;2.23;;;19.90;99.90;;;;;;5114618;28;20178;-45
2022/06/24 01:36:57;;;;;;;5.60;2.50;;;19.90;99.90;;;;;;5114719;28;20182;-47
2022/06/24 01:39:23;;;;;;;7.20;2.47;;;19.90;99.90;;;;;;5114920;28;20201;-46
2022/06/24 01:41:49;;;;;;;3.53;2.47;;;19.90;99.90;;;;;;5114504;28;20660;-46
2022/06/24 01:44:15;;;;;;;10.23;2.93;;;19.90;99.90;;;;;;5114212;28;20181;-46
2022/06/24 01:46:41;;;;;;;4.53;2.80;;;19.80;99.90;;;;;;5113290;28;20285;-46
2022/06/24 01:49:07;;;;;;;6.17;2.60;;;19.80;99.90;;;;;;5114046;28;20198;-47
2022/06/24 01:51:36;;;;;;;5.23;2.97;;;19.70;99.90;;;;;;5095723;28;20189;-45
2022/06/24 01:54:02;;;;;;;5.47;2.90;;;19.80;99.90;;;;;;5114180;28;20178;-47
2022/06/24 01:56:28;;;;;;;8.77;3.50;;;19.80;99.90;;;;;;5095651;28;20185;-44
2022/06/24 01:58:54;;;;;;;4.93;3.07;;;19.70;99.90;;;;;;5114045;28;20193;-46
2022/06/24 02:01:20;;;;;;;7.47;3.00;;;19.70;99.90;;;;;;5114033;28;20181;-45
2022/06/24 02:03:45;;;;;;;4.10;3.00;;;19.70;99.90;;;;;;5113904;28;20182;-42
2022/06/24 02:06:12;;;;;;;6.77;3.17;;;19.70;99.90;;;;;;5113618;28;20567;-44
2022/06/24 02:08:39;;;;;;;3.67;3.27;;;19.70;99.90;;;;;;5113601;28;20271;-46
2022/06/24 02:13:49;;;;;;;3.80;3.00;;;19.70;99.90;;;;;;5114063;28;20173;-45
2022/06/24 02:16:18;;;;;;;4.93;3.30;;;19.70;99.90;;;;;;5116390;28;20197;-42
2022/06/24 02:18:44;;;;;;;8.20;3.57;;;19.70;99.90;;;;;;5113978;28;20202;-43
2022/06/24 02:21:10;;;;;;;5.63;3.40;;;19.60;99.90;;;;;;5113793;28;20178;-43
2022/06/24 02:23:36;;;;;;;5.50;3.40;;;19.60;99.90;;;;;;5113900;28;20179;-42
2022/06/24 02:26:01;;;;;;;4.80;3.60;;;19.60;99.90;;;;;;5113501;28;20677;-43
2022/06/24 02:28:27;;;;;;;4.87;3.00;;;19.60;99.90;;;;;;5113666;28;20717;-44
2022/06/24 02:30:54;;;;;;;5.63;2.90;;;19.60;99.90;;;;;;5114104;28;20651;-43
2022/06/24 02:33:20;;;;;;;4.77;2.70;;;19.60;99.90;;;;;;5113315;28;20190;-43
2022/06/24 02:35:45;;;;;;;4.13;3.30;;;19.60;99.90;;;;;;5113438;28;20235;-43
2022/06/24 02:38:11;;;;;;;6.37;2.83;;;19.60;99.90;;;;;;5113381;28;20178;-44
2022/06/24 02:40:46;;;;;;;4.43;2.70;;;19.60;99.90;;;;;;5113348;28;20181;-44
2022/06/24 02:43:26;;;;;;;5.97;2.63;;;19.60;99.90;;;;;;5113853;28;20165;-41
2022/06/24 02:46:00;;;;;;;5.50;3.07;;;19.50;99.90;;;;;;5113278;28;20251;-44
2022/06/24 02:48:27;;;;;;;4.90;2.90;;;19.60;99.90;;;;;;5113536;28;20190;-45
2022/06/24 02:51:05;;;;;;;6.57;3.00;;;19.60;99.90;;;;;;5113433;28;20185;-42
2022/06/24 02:53:31;;;;;;;9.03;4.03;;;19.60;99.90;;;;;;5113334;28;20170;-42
2022/06/24 02:56:05;;;;;;;6.10;3.63;;;19.50;99.90;;;;;;5113540;28;20182;-42
2022/06/24 02:58:31;;;;;;;6.43;3.70;;;19.50;99.90;;;;;;5115991;28;20277;-44
2022/06/24 03:00:58;;;;;;;4.73;3.10;;;19.50;99.90;;;;;;5098733;28;20608;-42
2022/06/24 03:03:24;;;;;;;7.03;2.80;;;19.50;99.90;;;;;;5117148;28;20178;-43
2022/06/24 03:05:50;;;;;;;6.33;2.93;;;19.40;99.90;;;;;;5116977;28;20209;-42
2022/06/24 03:08:18;;;;;;;7.63;2.70;;;19.40;99.90;;;;;;5116831;28;20174;-43
2022/06/24 03:10:45;;;;;;;3.77;3.03;;;19.50;99.90;;;;;;5117083;28;20198;-44
2022/06/24 03:13:11;;;;;;;6.00;3.27;;;19.50;99.90;;;;;;5116767;28;20179;-43
2022/06/24 03:15:37;;;;;;;7.70;3.07;;;19.40;99.90;;;;;;5116978;28;20257;-42
2022/06/24 03:18:03;;;;;;;6.43;3.80;;;19.40;99.90;;;;;;5116857;28;20181;-45
2022/06/24 03:20:29;;;;;;;8.53;3.43;;;19.40;99.90;;;;;;5117196;28;20183;-41
2022/06/24 03:22:55;;;;;;;8.37;3.13;;;19.30;99.90;;;;;;5116735;28;20196;-43
2022/06/24 03:25:21;;;;;;;7.73;3.33;;;19.30;99.90;;;;;;5117870;28;20202;-44
2022/06/24 03:27:47;;;;;;;4.23;3.23;;;19.30;99.90;;;;;;5119424;28;20189;-44
2022/06/24 03:30:13;;;;;;;8.37;3.40;;;19.30;99.90;;;;;;5119017;28;20191;-44
2022/06/24 03:32:39;;;;;;;7.47;3.27;;;19.30;99.90;;;;;;5118991;28;20182;-44
2022/06/24 03:35:06;;;;;;;9.00;3.27;;;19.30;99.90;;;;;;5120595;28;20170;-44
2022/06/24 03:37:32;;;;;;;6.10;3.30;;;19.20;99.90;;;;;;5117215;28;20180;-44
2022/06/24 03:39:59;;;;;;;8.27;4.10;;;19.20;99.90;;;;;;5098106;28;20198;-45
2022/06/24 03:42:24;;;;;;;3.60;3.20;;;19.20;99.90;;;;;;5116496;28;20174;-43
2022/06/24 03:44:50;;;;;;;7.20;3.17;;;19.20;99.90;;;;;;5116170;28;20235;-42
2022/06/24 03:47:16;;;;;;;5.63;3.37;;;19.20;99.90;;;;;;5116322;28;20253;-42
2022/06/24 03:49:42;;;;;;;5.07;3.53;;;19.20;99.90;;;;;;5116133;28;20747;-43
2022/06/24 03:52:08;;;;;;;5.87;3.07;;;19.20;99.90;;;;;;5115986;28;20170;-42
2022/06/24 03:54:34;;;;;;;7.63;3.50;;;19.30;99.90;;;;;;5116036;28;20174;-41
2022/06/24 03:56:59;;;;;;;3.30;3.00;;;19.30;99.90;;;;;;5116262;28;20166;-44
2022/06/24 03:59:25;;;;;;;5.10;2.90;;;19.20;99.90;;;;;;5115767;28;20194;-43
2022/06/24 04:01:51;;;;;;;7.80;2.87;;;19.30;99.90;;;;;;5115836;28;20201;-42
2022/06/24 04:04:16;;;;;;;7.43;2.90;;;19.30;99.90;;;;;;5117794;28;20197;-45
2022/06/24 04:06:42;;;;;;;3.93;2.87;;;19.30;99.90;;;;;;5115600;28;20202;-42
2022/06/24 04:09:08;;;;;;;5.60;3.63;;;19.40;99.90;;;;;;5114753;28;20700;-42
2022/06/24 04:11:33;;;;;;;4.40;2.90;;;19.40;99.90;;;;;;5115943;28;20178;-43
2022/06/24 04:14:00;;;;;;;3.10;2.70;;;19.40;99.90;;;;;;5115843;28;20174;-42
2022/06/24 04:16:26;;;;;;;4.53;2.93;;;19.40;99.90;;;;;;5115628;28;20212;-43
2022/06/24 04:18:52;;;;;;;11.03;2.97;;;19.40;99.90;;;;;;5115435;28;20198;-43
2022/06/24 04:21:18;;;;;;;5.80;3.23;;;19.40;99.90;;;;;;5115731;28;20281;-42
2022/06/24 04:23:44;;;;;;;5.30;4.00;;;19.40;99.90;;;;;;5115461;28;20658;-43
2022/06/24 04:26:11;;;;;;;6.53;4.50;;;19.40;99.90;;;;;;5114478;28;20198;-43
2022/06/24 04:28:37;;;;;;;6.73;4.47;;;19.40;99.90;;;;;;5115592;28;20194;-42
2022/06/24 04:31:03;;;;;;;9.33;4.50;;;19.40;99.90;;;;;;5115590;28;20167;-44
2022/06/24 04:33:29;;;;;;;7.77;4.10;;;19.40;99.90;;;;;;5115281;28;20201;-43
2022/06/24 04:35:55;;;;;;;8.43;3.67;;;19.40;99.90;;;;;;5115285;28;20174;-41
2022/06/24 04:38:21;;;;;;;6.40;3.50;;;19.40;99.90;;;;;;5115495;28;20202;-42
2022/06/24 04:40:47;;;;;;;6.40;3.20;;;19.40;99.90;;;;;;5115578;28;20192;-45
2022/06/24 04:43:13;;;;;;;6.27;3.73;;;19.40;99.90;;;;;;5115439;28;20615;-44
2022/06/24 04:45:39;;;;;;;6.87;3.60;;;19.40;99.90;;;;;;5115001;28;20297;-45
2022/06/24 04:48:05;;;;;;;7.07;3.00;;;19.30;99.90;;;;;;5115116;28;20253;-44
2022/06/24 04:50:31;;;;;;;6.57;3.57;;;19.30;99.90;;;;;;5115302;28;20174;-42
2022/06/24 04:52:57;;;;;;;8.53;3.83;;;19.30;99.90;;;;;;5115416;28;20174;-44
2022/06/24 04:55:23;;;;;;;7.47;3.40;;;19.30;99.90;;;;;;5115223;28;20307;-43
2022/06/24 04:57:49;;;;;;;9.00;3.57;;;19.30;99.90;;;;;;5114819;28;20178;-45
2022/06/24 05:00:15;;;;;;;5.80;3.50;;;19.30;99.90;;;;;;5096548;28;20198;-45
2022/06/24 05:02:42;;;;;;;10.90;3.90;;;19.30;99.90;;;;;;5115745;28;20273;-42
2022/06/24 05:05:09;;;;;;;5.13;3.20;;;19.30;99.90;;;;;;5114129;28;20202;-45
2022/06/24 05:07:35;;;;;;;7.63;3.87;;;19.30;99.90;;;;;;5114834;28;20163;-43
2022/06/24 05:10:01;;;;;;;8.60;3.60;;;19.30;99.90;;;;;;5113572;28;20194;-42
2022/06/24 05:12:27;;;;;;;9.50;4.17;;;19.40;99.90;;;;;;5114515;28;20174;-44
2022/06/24 05:14:53;;;;;;;9.17;3.67;;;19.30;99.90;;;;;;5114541;28;20527;-43
2022/06/24 05:17:18;;;;;;;10.27;4.43;;;19.40;99.90;;;;;;5114904;28;20200;-45
2022/06/24 05:19:44;;;;;;;6.67;4.37;;;19.50;99.90;;;;;;5115033;28;20240;-43
2022/06/24 05:22:10;;;;;;;8.13;4.53;;;19.50;99.90;;;;;;5114648;28;20546;-42
2022/06/24 05:24:36;;;;;;;7.47;4.47;;;19.50;99.90;;;;;;5114379;28;20175;-42
2022/06/24 05:27:01;;;;;;;8.33;5.23;;;19.60;99.90;;;;;;5114637;28;20680;-42
2022/06/24 05:29:27;;;;;;;7.53;5.03;;;19.60;99.90;;;;;;5114388;28;20226;-42
2022/06/24 05:31:53;;;;;;;7.53;4.97;;;19.60;99.90;;;;;;5114255;28;20209;-44
2022/06/24 05:34:18;;;;;;;11.20;5.80;;;19.60;99.90;;;;;;5113992;28;20204;-41
2022/06/24 05:36:44;;;;;;;7.43;6.50;;;19.60;99.90;;;;;;5114090;28;20182;-43
2022/06/24 05:39:09;;;;;;;8.70;7.13;;;19.70;99.90;;;;;;5113915;28;20198;-42
2022/06/24 05:41:38;;;;;;;9.80;7.00;;;19.70;99.90;;;;;;5114283;28;20648;-42
2022/06/24 05:44:04;;;;;;;11.07;7.77;;;19.70;99.90;;;;;;5113900;28;20341;-42
2022/06/24 05:46:30;;;;;;;11.33;7.90;;;19.80;99.90;;;;;;5114049;28;20217;-43
2022/06/24 05:48:56;;;;;;;12.50;7.17;;;19.80;99.90;;;;;;5113816;28;20318;-42
2022/06/24 05:51:22;;;;;;;7.60;6.90;;;19.80;99.90;;;;;;5114103;28;20227;-41
2022/06/24 05:56:32;;;;;;;7.77;6.03;;;19.80;99.90;;;;;;5114203;28;20200;-40
2022/06/24 05:58:59;;;;;;;9.27;6.13;;;19.80;99.90;;;;;;5113714;28;20201;-41
2022/06/24 06:01:25;;;;;;;13.23;6.40;;;19.80;99.90;;;;;;5114405;28;20221;-40
2022/06/24 06:03:51;;;;;;;10.07;6.70;;;19.70;99.90;;;;;;5114568;28;20182;-38
2022/06/24 06:06:17;;;;;;;8.57;6.60;;;19.80;99.90;;;;;;5113887;28;20198;-41
2022/06/24 06:08:43;;;;;;;10.60;7.03;;;19.70;99.90;;;;;;5114010;28;20653;-42
2022/06/24 06:11:15;;;;;;;8.07;6.30;;;19.70;99.90;;;;;;5114116;28;20545;-42
2022/06/24 06:13:42;;;;;;;5.50;2.90;;;19.60;99.90;;;;;;5113580;28;20638;-43
2022/06/24 06:16:08;;;;;;;5.63;2.10;;;19.40;99.90;;;;;;5113812;28;20261;-42
2022/06/24 06:18:34;;;;;;;5.07;2.00;;;19.20;99.90;;;;;;5113794;28;20202;-44
2022/06/24 06:21:04;;;;;;;4.33;2.57;;;19.00;99.90;;;;;;5113585;28;20178;-44
2022/06/24 06:23:29;;;;;;;3.03;2.17;;;18.90;99.90;;;;;;5113509;28;20182;-41
2022/06/24 06:25:56;;;;;;;4.97;2.67;;;18.70;99.90;;;;;;5113431;28;20200;-41
2022/06/24 06:28:22;;;;;;;3.20;2.37;;;18.60;99.90;;;;;;5112606;28;20201;-43
2022/06/24 06:30:47;;;;;;;4.47;2.47;;;18.60;99.90;;;;;;5113776;28;20255;-41
2022/06/24 06:33:14;;;;;;;3.23;2.57;;;18.50;99.90;;;;;;5097713;28;20201;-39
2022/06/24 06:35:39;;;;;;;4.30;2.97;;;18.50;99.90;;;;;;5099166;28;20186;-42
2022/06/24 06:38:05;;;;;;;3.37;2.73;;;18.50;99.90;;;;;;5117540;28;20514;-40
2022/06/24 06:40:34;;;;;;;3.93;2.93;;;18.40;99.90;;;;;;5117935;28;20204;-39
2022/06/24 06:43:00;;;;;;;3.87;2.93;;;18.40;99.90;;;;;;5099033;28;20183;-41
2022/06/24 06:45:26;;;;;;;3.07;2.60;;;18.40;99.90;;;;;;5117479;28;20202;-43
2022/06/24 06:47:52;;;;;;;4.80;3.03;;;18.40;99.90;;;;;;5117438;28;20178;-41
2022/06/24 06:50:18;;;;;;;3.03;2.00;;;18.30;99.90;;;;;;5098829;28;20691;-40
2022/06/24 06:52:44;;;;;;;2.63;1.87;;;18.30;99.90;;;;;;5117414;28;20179;-42
2022/06/24 06:55:09;;;;;;;3.00;1.77;;;18.20;99.90;;;;;;5115995;28;20170;-42
2022/06/24 06:57:35;;;;;;;3.20;2.00;;;18.10;99.90;;;;;;5117306;28;20185;-43
2022/06/24 07:00:01;;;;;;;4.73;2.20;;;18.00;99.90;;;;;;5115808;28;20240;-42
2022/06/24 07:02:28;;;;;;;3.00;2.00;;;18.00;99.90;;;;;;5117259;28;20591;-42
2022/06/24 07:04:54;;;;;;;3.20;2.00;;;18.00;99.90;;;;;;5082430;28;20186;-41
2022/06/24 07:07:20;;;;;;;2.60;1.93;;;18.00;99.90;;;;;;5098551;28;20182;-40
2022/06/24 07:09:46;;;;;;;2.10;1.90;;;18.00;99.90;;;;;;5116763;28;20198;-42
2022/06/24 07:12:13;;;;;;;2.90;2.07;;;18.00;99.90;;;;;;5098501;28;20181;-42
2022/06/24 07:14:41;;;;;;;2.10;1.90;;;18.00;99.90;;;;;;5116683;28;20170;-42
2022/06/24 07:17:07;;;;;;;2.40;2.20;;;18.00;99.90;;;;;;5116949;28;20175;-42
2022/06/24 07:19:32;;;;;;;2.50;1.90;;;18.10;99.90;;;;;;5098357;28;20205;-42
2022/06/24 07:21:58;;;;;;;2.90;2.40;;;18.10;99.90;;;;;;5116798;28;20182;-42
2022/06/24 07:24:23;;;;;;;3.00;2.70;;;18.10;99.90;;;;;;5116539;28;20221;-39
2022/06/24 07:26:49;;;;;;;2.57;2.37;;;18.30;99.90;;;;;;5116427;28;20190;-41
2022/06/24 07:29:14;;;;;;;5.80;2.80;;;18.30;99.90;;;;;;5098077;28;20601;-41
2022/06/24 07:31:40;;;;;;;3.77;2.97;;;18.40;99.90;;;;;;5116388;28;20177;-42
2022/06/24 07:34:06;;;;;;;5.03;3.07;;;18.50;99.90;;;;;;5116323;28;20182;-40
2022/06/24 07:36:32;;;;;;;3.57;3.20;;;18.60;99.90;;;;;;5098097;28;20178;-42
2022/06/24 07:38:57;;;;;;;7.00;3.37;;;18.70;99.90;;;;;;5116171;28;20205;-42
2022/06/24 07:41:23;;;;;;;4.00;3.60;;;18.80;99.90;;;;;;5116448;28;20178;-42
2022/06/24 07:43:49;;;;;;;4.37;3.67;;;18.90;99.90;;;;;;5115016;28;20646;-41
2022/06/24 07:46:14;;;;;;;5.47;4.17;;;19.00;99.90;;;;;;5116433;28;20590;-42
2022/06/24 07:48:40;;;;;;;4.60;3.90;;;19.10;99.90;;;;;;5097720;28;20194;-42
2022/06/24 07:51:13;;;;;;;4.30;3.90;;;19.20;99.90;;;;;;5116046;28;20170;-40
2022/06/24 07:53:40;;;;;;;4.13;3.27;;;19.30;99.90;;;;;;5116144;28;20159;-43
2022/06/24 07:58:50;;;;;;;6.13;3.70;;;19.30;99.90;;;;;;5116216;28;20687;-43
2022/06/24 08:01:16;;;;;;;4.33;3.53;;;19.30;99.90;;;;;;5116408;28;20170;-41
2022/06/24 08:03:42;;;;;;;4.43;4.03;;;19.40;99.90;;;;;;5115976;28;20305;-41
2022/06/24 08:06:08;;;;;;;5.90;3.90;;;19.50;99.90;;;;;;5115688;28;20190;-40
2022/06/24 08:08:33;;;;;;;4.33;3.63;;;19.50;99.90;;;;;;5115649;28;20248;-41
2022/06/24 08:10:59;;;;;;;7.20;3.20;;;19.50;99.90;;;;;;5115696;28;20642;-42
2022/06/24 08:13:25;;;;;;;5.20;3.63;;;19.60;99.90;;;;;;5115559;28;20181;-42
2022/06/24 08:15:51;;;;;;;5.87;4.10;;;19.70;99.90;;;;;;5116350;28;20544;-42
2022/06/24 08:18:19;;;;;;;6.80;4.00;;;19.70;99.90;;;;;;5116623;28;20257;-41
2022/06/24 08:20:44;;;;;;;6.13;4.23;;;19.70;99.90;;;;;;5115631;28;20177;-40
2022/06/24 08:23:10;;;;;;;6.77;4.10;;;19.70;99.90;;;;;;5097277;28;20725;-40
2022/06/24 08:25:36;;;;;;;6.00;4.10;;;19.70;99.90;;;;;;5097118;28;20198;-43
2022/06/24 08:28:02;;;;;;;6.97;4.53;;;19.80;99.90;;;;;;5096989;28;20201;-43
2022/06/24 08:30:28;;;;;;;6.70;4.37;;;19.80;99.90;;;;;;5115361;28;20660;-40
2022/06/24 08:32:54;;;;;;;5.60;4.87;;;19.90;99.90;;;;;;5115364;28;20278;-40
2022/06/24 08:35:20;;;;;;;6.47;4.90;;;20.00;99.90;;;;;;5115900;28;20182;-39
2022/06/24 08:37:46;;;;;;;5.40;4.87;;;20.10;99.90;;;;;;5115695;28;20659;-38
2022/06/24 08:40:12;;;;;;;9.00;4.50;;;20.10;99.90;;;;;;5096890;28;20273;-41
2022/06/24 08:42:38;;;;;;;7.30;4.07;;;20.20;99.90;;;;;;5096958;28;20269;-41
2022/06/24 08:45:05;;;;;;;8.67;4.67;;;20.30;99.90;;;;;;5115058;28;20202;-41
2022/06/24 08:47:31;;;;;;;4.20;3.67;;;20.40;99.90;;;;;;5096727;28;20178;-41
2022/06/24 08:49:57;;;;;;;8.00;4.30;;;20.40;99.90;;;;;;5115032;28;20246;-39
2022/06/24 08:52:22;;;;;;;5.30;3.67;;;20.60;99.90;;;;;;5096606;28;20634;-41
2022/06/24 08:54:50;;;;;;;7.37;3.67;;;20.70;99.90;;;;;;5114543;28;20170;-41
2022/06/24 08:57:16;;;;;;;5.37;3.70;;;20.80;99.90;;;;;;5096476;28;20205;-40
2022/06/24 08:59:46;;;;;;;6.10;3.87;;;20.90;99.90;;;;;;5114598;28;20206;-41
2022/06/24 09:02:14;;;;;;;4.57;3.60;;;21.10;99.90;;;;;;5114780;28;20181;-42
2022/06/24 09:04:44;;;;;;;4.47;4.07;;;21.40;99.90;;;;;;5114743;28;20174;-43
2022/06/24 09:07:26;;;;;;;4.77;3.67;;;21.60;99.90;;;;;;5114615;28;20205;-41
2022/06/24 09:10:04;;;;;;;7.60;3.27;;;21.80;99.90;;;;;;5114437;28;20190;-42
2022/06/24 09:12:36;;;;;;;6.60;3.37;;;22.00;99.90;;;;;;5096176;28;20686;-41
2022/06/24 09:15:03;;;;;;;4.63;3.87;;;22.20;99.90;;;;;;5096179;28;20213;-40
2022/06/24 09:17:30;;;;;;;4.47;3.50;;;22.40;99.90;;;;;;5096167;28;20266;-41
2022/06/24 09:20:17;;;;;;;6.47;3.77;;;22.70;99.90;;;;;;5096038;28;20190;-41
2022/06/24 09:22:43;;;;;;;3.90;3.50;;;22.90;99.90;;;;;;5114631;28;20571;-41
2022/06/24 09:25:09;;;;;;;3.73;3.27;;;23.10;99.90;;;;;;5114220;28;20206;-42
2022/06/24 09:27:41;;;;;;;3.83;3.47;;;23.30;99.90;;;;;;5114444;28;20665;-41
2022/06/24 09:30:08;;;;;;;4.70;3.23;;;23.30;99.90;;;;;;5114163;28;20193;-41
2022/06/24 09:32:33;;;;;;;4.63;3.07;;;23.30;99.90;;;;;;5095798;28;20196;-41
2022/06/24 09:35:06;;;;;;;5.87;3.27;;;23.20;99.90;;;;;;5114397;28;20670;-41
2022/06/24 09:37:42;;;;;;;5.53;3.23;;;23.30;99.90;;;;;;5114131;28;20185;-43
2022/06/24 09:40:29;;;;;;;4.23;3.10;;;23.50;99.90;;;;;;5114228;28;20190;-43
2022/06/24 09:43:06;;;;;;;4.37;3.07;;;23.60;99.90;;;;;;5114182;28;20189;-41
2022/06/24 09:45:45;;;;;;;5.70;3.03;;;23.80;99.90;;;;;;5095797;28;20235;-42
2022/06/24 09:48:32;;;;;;;3.70;2.90;;;23.90;99.90;;;;;;5095610;28;20185;-45
2022/06/24 09:51:00;;;;;;;4.63;2.57;;;23.90;99.90;;;;;;5114100;28;20170;-43
2022/06/24 09:53:28;;;;;;;3.27;2.57;;;23.80;99.90;;;;;;5114225;28;20181;-43
2022/06/24 09:55:55;;;;;;;4.97;2.20;;;23.80;99.90;;;;;;5115257;28;20182;-43
2022/06/24 09:58:22;;;;;;;3.30;2.20;;;23.90;99.90;;;;;;5113940;28;20672;-43
2022/06/24 10:00:48;;;;;;;3.33;2.40;;;24.10;99.90;;;;;;5114187;28;20167;-43
2022/06/24 10:03:15;;;;;;;3.63;2.03;;;24.20;99.90;;;;;;5115253;28;20178;-44
2022/06/24 10:05:51;;;;;;;4.17;2.50;;;24.40;99.90;;;;;;5097186;28;20251;-44
2022/06/24 10:08:19;;;;;;;2.17;1.97;;;24.70;99.90;;;;;;5117686;28;20165;-43
2022/06/24 10:10:55;;;;;;;2.87;1.80;;;24.80;99.90;;;;;;5119584;28;20242;-44
2022/06/24 10:13:31;;;;;;;3.07;1.80;;;24.80;99.90;;;;;;5118302;28;20534;-43
2022/06/24 10:16:02;;;;;;;2.53;1.73;;;24.90;99.90;;;;;;5118553;28;20158;-43
2022/06/24 10:18:32;;;;;;;5.27;1.70;;;25.10;99.90;;;;;;5099581;28;20650;-43
2022/06/24 10:21:02;;;;;;;3.37;2.00;;;25.30;99.90;;;;;;5117960;28;20181;-43
2022/06/24 10:23:39;;;;;;;3.63;1.50;;;25.50;99.90;;;;;;5117680;28;20219;-43
2022/06/24 10:26:10;;;;;;;4.60;1.50;;;25.60;99.90;;;;;;5117796;28;20555;-45
2022/06/24 10:29:04;;;;;;;2.97;1.53;;;25.60;99.90;;;;;;5117337;28;20216;-43
2022/06/24 10:31:56;;;;;;;1.40;1.30;;;25.70;99.90;;;;;;5117740;28;20174;-43
2022/06/24 10:34:22;;;;;;;2.47;1.50;;;25.80;99.90;;;;;;5117334;28;20182;-44
2022/06/24 10:36:49;;;;;;;6.73;1.80;;;25.80;99.90;;;;;;5117436;28;20513;-44
2022/06/24 10:39:19;;;;;;;3.67;1.67;;;25.80;99.90;;;;;;5117592;28;20281;-43
2022/06/24 10:41:45;;;;;;;2.47;1.60;;;25.80;99.90;;;;;;5117708;28;20227;-43
2022/06/24 10:44:28;;;;;;;2.13;1.60;;;25.80;99.90;;;;;;5117535;28;20171;-43
2022/06/24 10:47:12;;;;;;;3.77;1.70;;;25.60;99.90;;;;;;5118115;28;20198;-43
2022/06/24 10:49:55;;;;;;;3.20;1.90;;;25.60;99.90;;;;;;5117249;28;20239;-45
2022/06/24 10:52:33;;;;;;;3.07;1.50;;;25.60;99.90;;;;;;5117242;28;20253;-44
2022/06/24 10:55:17;;;;;;;5.40;1.93;;;25.50;99.90;;;;;;5117396;28;20178;-43
2022/06/24 10:57:47;;;;;;;3.67;1.67;;;25.50;99.90;;;;;;5117339;28;20174;-45
2022/06/24 11:00:14;;;;;;;2.87;1.73;;;25.40;99.90;;;;;;5117668;28;20195;-44
2022/06/24 11:02:41;;;;;;;1.93;1.53;;;25.40;99.90;;;;;;5117324;28;20234;-44
2022/06/24 11:05:16;;;;;;;2.43;1.53;;;25.20;99.90;;;;;;5098615;28;20178;-43
2022/06/24 11:07:46;;;;;;;2.40;1.80;;;25.20;99.90;;;;;;5117270;28;20541;-44
2022/06/24 11:10:24;;;;;;;2.27;1.40;;;25.20;99.90;;;;;;5117093;28;20209;-44
2022/06/24 11:12:52;;;;;;;2.00;1.37;;;25.20;99.90;;;;;;5117083;28;20186;-44
2022/06/24 11:15:18;;;;;;;4.77;1.60;;;25.20;99.90;;;;;;5116857;28;20179;-44
2022/06/24 11:17:44;;;;;;;5.83;1.90;;;25.20;99.90;;;;;;5117507;28;20257;-43
2022/06/24 11:20:12;;;;;;;3.87;1.60;;;25.20;99.90;;;;;;5116778;28;20198;-42
2022/06/24 11:22:45;;;;;;;2.33;1.30;;;25.10;99.90;;;;;;5117661;28;20231;-45
2022/06/24 11:25:12;;;;;;;1.70;1.47;;;25.20;99.90;;;;;;5117954;28;20186;-44
2022/06/24 11:27:38;;;;;;;5.40;1.80;;;25.20;99.90;;;;;;5117775;28;20170;-45
2022/06/24 11:30:05;;;;;;;3.37;1.90;;;25.30;99.90;;;;;;5117359;28;20205;-44
2022/06/24 11:32:51;;;;;;;2.43;1.87;;;25.40;99.90;;;;;;5117249;28;20193;-45
2022/06/24 11:35:18;;;;;;;4.97;2.37;;;25.50;99.90;;;;;;5116350;28;20159;-44
2022/06/24 11:37:43;;;;;;;4.60;2.13;;;25.80;99.90;;;;;;5116893;28;20179;-43
2022/06/24 11:40:10;;;;;;;2.67;2.00;;;25.90;99.90;;;;;;5116535;28;20269;-44
2022/06/24 11:42:35;;;;;;;3.93;2.10;;;26.10;99.90;;;;;;5116491;28;20166;-45
2022/06/24 11:45:01;;;;;;;2.23;2.00;;;26.20;99.90;;;;;;5116717;28;20197;-44
2022/06/24 11:47:31;;;;;;;3.07;2.17;;;26.20;99.90;;;;;;5117886;28;20187;-41
2022/06/24 11:50:04;;;;;;;1.97;1.63;;;26.40;99.90;;;;;;5116506;28;20202;-42
2022/06/24 11:52:48;;;;;;;2.83;1.50;;;26.50;99.90;;;;;;5120882;28;20633;-46
2022/06/24 11:55:29;;;;;;;2.00;1.70;;;26.70;99.90;;;;;;5117261;28;20178;-43
2022/06/24 11:57:57;;;;;;;3.20;1.80;;;27.00;99.90;;;;;;5116543;28;20253;-40
2022/06/24 12:00:25;;;;;;;2.40;1.67;;;27.10;99.90;;;;;;5116029;28;20186;-41
2022/06/24 12:02:51;;;;;;;2.40;1.70;;;27.10;99.90;;;;;;5116668;28;20162;-40
2022/06/24 12:05:18;;;;;;;4.40;1.83;;;27.00;99.90;;;;;;5115973;28;20167;-43
2022/06/24 12:07:44;;;;;;;2.67;1.90;;;27.00;99.90;;;;;;5116084;28;20174;-42
2022/06/24 12:10:12;;;;;;;2.33;1.70;;;26.90;99.90;;;;;;5120465;28;20190;-41
2022/06/24 12:12:55;;;;;;;3.97;1.90;;;27.00;99.90;;;;;;5099138;28;20174;-40
2022/06/24 12:15:25;;;;;;;3.03;1.80;;;27.10;99.90;;;;;;5097510;28;20182;-41
2022/06/24 12:17:53;;;;;;;3.30;2.03;;;27.30;99.90;;;;;;5097287;28;20174;-40
2022/06/24 12:20:24;;;;;;;2.00;1.80;;;27.40;99.90;;;;;;5115520;28;20190;-41
2022/06/24 12:23:14;;;;;;;2.40;1.70;;;27.40;99.90;;;;;;5115759;28;20257;-41
2022/06/24 12:25:41;;;;;;;3.60;2.00;;;27.60;99.90;;;;;;5115630;28;20254;-41
2022/06/24 12:28:21;;;;;;;3.25;2.03;;;27.70;99.90;;;;;;5115772;28;20642;-41
2022/06/24 12:31:05;;;;;;;1.45;1.20;;;27.90;99.90;;;;;;5114923;28;20182;-40
2022/06/24 12:33:36;;;;;;;2.03;1.48;;;28.00;99.90;;;;;;5115317;28;20205;-40
2022/06/24 12:36:04;;;;;;;2.30;1.70;;;28.10;99.90;;;;;;5115498;28;20179;-41
2022/06/24 12:38:30;;;;;;;3.13;1.77;;;28.20;99.90;;;;;;5096876;28;20205;-40
2022/06/24 12:41:10;;;;;;;2.20;1.60;;;28.20;99.90;;;;;;5115180;28;20171;-42
2022/06/24 12:43:36;;;;;;;2.75;1.90;;;28.20;99.90;;;;;;5115091;28;20257;-44
2022/06/24 12:46:04;;;;;;;1.85;1.40;;;28.40;99.90;;;;;;5098747;28;20729;-41
2022/06/24 12:51:13;;;;;;;1.45;1.30;;;28.70;99.90;;;;;;5117599;28;20165;-41
2022/06/24 12:53:45;;;;;;;1.38;1.27;;;28.90;99.90;;;;;;5113855;28;20261;-43
2022/06/24 12:56:11;;;;;;;1.27;1.17;;;29.10;99.90;;;;;;5114860;28;20682;-44
2022/06/24 12:58:37;;;;;;;1.55;1.30;;;29.10;99.90;;;;;;5116221;28;20198;-41
2022/06/24 13:01:02;;;;;;;2.63;1.10;;;29.00;99.90;;;;;;5115804;28;20174;-42
2022/06/24 13:03:28;;;;;;;1.30;1.10;;;28.90;99.90;;;;;;5117415;28;20641;-47